createdAt,value
2023-04-13T00:01:29.433Z,99505.34
2023-04-13T00:03:58.136Z,99502.75
2023-04-13T00:06:24.943Z,99508.56
2023-04-13T00:08:54.588Z,99506.13
2023-04-13T00:11:21.152Z,99514.81
2023-04-13T00:13:47.656Z,99509.81
2023-04-13T00:16:16.098Z,99520.09
2023-04-13T00:18:42.399Z,99512.41
2023-04-13T00:21:08.721Z,99525.25
2023-04-13T00:23:36.079Z,99508.13
2023-04-13T00:26:02.620Z,99513.38
2023-04-13T00:28:29.916Z,99515.25
2023-04-13T00:30:56.587Z,99511.81
2023-04-13T00:33:22.922Z,99514.31
2023-04-13T00:35:49.374Z,99517.00
2023-04-13T00:38:15.699Z,99514.41
2023-04-13T00:40:41.992Z,99511.97
2023-04-13T00:43:08.375Z,99514.66
2023-04-13T00:45:39.443Z,99509.56
2023-04-13T00:48:09.650Z,99518.25
2023-04-13T00:50:36.782Z,99507.97
2023-04-13T00:53:06.845Z,99504.56
2023-04-13T00:55:38.417Z,99501.25
2023-04-13T00:58:06.173Z,99497.09
2023-04-13T01:00:32.606Z,99493.66
2023-04-13T01:03:01.525Z,99491.09
2023-04-13T01:05:35.334Z,99491.16
2023-04-13T01:08:17.415Z,99489.59
2023-04-13T01:11:11.170Z,99491.31
2023-04-13T01:13:46.617Z,99499.91
2023-04-13T01:16:19.527Z,99492.13
2023-04-13T01:18:50.240Z,99492.25
2023-04-13T01:21:20.448Z,99502.53
2023-04-13T01:23:55.650Z,99504.28
2023-04-13T01:26:22.623Z,99514.56
2023-04-13T01:28:51.145Z,99501.66
2023-04-13T01:31:19.081Z,99508.59
2023-04-13T01:33:46.792Z,99504.38
2023-04-13T01:36:14.455Z,99506.97
2023-04-13T01:38:40.893Z,99504.50
2023-04-13T01:41:08.468Z,99501.94
2023-04-13T01:43:35.731Z,99507.97
2023-04-13T01:46:16.343Z,99500.22
2023-04-13T01:48:51.715Z,99507.94
2023-04-13T01:51:21.813Z,99507.09
2023-04-13T01:53:53.490Z,99499.41
2023-04-13T01:56:22.812Z,99499.47
2023-04-13T01:58:53.357Z,99504.59
2023-04-13T02:01:19.756Z,99506.28
2023-04-13T02:03:46.271Z,99505.50
2023-04-13T02:06:12.863Z,99500.47
2023-04-13T02:08:40.304Z,99508.06
2023-04-13T02:11:07.636Z,99506.44
2023-04-13T02:13:34.547Z,99503.00
2023-04-13T02:16:02.221Z,99500.50
2023-04-13T02:18:28.531Z,99502.13
2023-04-13T02:21:00.987Z,99505.53
2023-04-13T02:23:27.296Z,99499.56
2023-04-13T02:25:53.608Z,99503.78
2023-04-13T02:28:20.441Z,99500.44
2023-04-13T02:30:46.974Z,99500.44
2023-04-13T02:33:13.355Z,99507.28
2023-04-13T02:35:39.681Z,99517.66
2023-04-13T02:38:10.682Z,99515.94
2023-04-13T02:40:38.626Z,99518.59
2023-04-13T02:43:05.164Z,99511.75
2023-04-13T02:45:31.641Z,99515.16
2023-04-13T02:47:58.583Z,99521.25
2023-04-13T02:50:24.960Z,99534.09
2023-04-13T02:52:51.327Z,99527.31
2023-04-13T02:55:17.935Z,99521.34
2023-04-13T02:57:44.659Z,99523.91
2023-04-13T03:00:11.495Z,99518.72
2023-04-13T03:02:38.317Z,99519.53
2023-04-13T03:05:08.658Z,99518.66
2023-04-13T03:07:36.384Z,99520.44
2023-04-13T03:10:05.301Z,99525.63
2023-04-13T03:12:32.661Z,99528.25
2023-04-13T03:15:02.055Z,99530.00
2023-04-13T03:17:30.100Z,99526.50
2023-04-13T03:19:59.803Z,99527.34
2023-04-13T03:22:30.337Z,99523.94
2023-04-13T03:24:56.704Z,99523.91
2023-04-13T03:27:23.131Z,99515.31
2023-04-13T03:29:49.423Z,99517.97
2023-04-13T03:32:15.768Z,99523.94
2023-04-13T03:34:44.072Z,99516.34
2023-04-13T03:37:11.684Z,99503.47
2023-04-13T03:39:39.200Z,99501.63
2023-04-13T03:42:05.653Z,99500.88
2023-04-13T03:44:32.648Z,99510.31
2023-04-13T03:46:59.068Z,99512.00
2023-04-13T03:49:25.728Z,99511.25
2023-04-13T03:51:52.068Z,99513.84
2023-04-13T03:54:18.440Z,99517.25
2023-04-13T03:56:45.123Z,99512.06
2023-04-13T03:59:11.513Z,99516.25
2023-04-13T04:01:38.121Z,99519.69
2023-04-13T04:04:04.628Z,99520.53
2023-04-13T04:06:31.291Z,99517.16
2023-04-13T04:08:57.600Z,99513.72
2023-04-13T04:11:23.953Z,99512.00
2023-04-13T04:13:50.341Z,99514.59
2023-04-13T04:16:17.109Z,99513.75
2023-04-13T04:18:43.624Z,99520.59
2023-04-13T04:21:11.173Z,99525.72
2023-04-13T04:23:39.821Z,99519.72
2023-04-13T04:26:07.318Z,99524.88
2023-04-13T04:28:38.918Z,99524.88
2023-04-13T04:31:07.072Z,99523.13
2023-04-13T04:33:33.556Z,99528.25
2023-04-13T04:36:01.604Z,99519.72
2023-04-13T04:38:27.923Z,99529.97
2023-04-13T04:40:57.357Z,99528.31
2023-04-13T04:43:25.618Z,99527.41
2023-04-13T04:45:52.200Z,99527.34
2023-04-13T04:48:19.927Z,99529.03
2023-04-13T04:50:46.226Z,99529.09
2023-04-13T04:53:12.556Z,99545.34
2023-04-13T04:55:39.322Z,99543.59
2023-04-13T04:58:06.483Z,99535.06
2023-04-13T05:00:32.842Z,99539.31
2023-04-13T05:03:00.835Z,99544.47
2023-04-13T05:05:29.769Z,99537.56
2023-04-13T05:07:56.886Z,99542.63
2023-04-13T05:10:24.621Z,99538.28
2023-04-13T05:12:51.018Z,99537.44
2023-04-13T05:15:17.298Z,99532.19
2023-04-13T05:17:46.583Z,99538.22
2023-04-13T05:20:16.240Z,99539.84
2023-04-13T05:22:42.978Z,99531.25
2023-04-13T05:25:09.764Z,99533.81
2023-04-13T05:27:36.981Z,99532.00
2023-04-13T05:30:05.265Z,99532.78
2023-04-13T05:32:34.247Z,99530.09
2023-04-13T05:35:00.626Z,99540.34
2023-04-13T05:37:27.276Z,99544.47
2023-04-13T05:39:53.623Z,99547.72
2023-04-13T05:42:19.963Z,99545.06
2023-04-13T05:44:47.507Z,99548.44
2023-04-13T05:47:13.885Z,99548.19
2023-04-13T05:49:40.213Z,99547.94
2023-04-13T05:52:07.836Z,99551.22
2023-04-13T05:54:34.399Z,99554.50
2023-04-13T05:57:00.884Z,99549.97
2023-04-13T05:59:27.327Z,99549.91
2023-04-13T06:01:53.697Z,99551.53
2023-04-13T06:04:20.701Z,99548.09
2023-04-13T06:06:47.204Z,99555.75
2023-04-13T06:09:14.539Z,99560.94
2023-04-13T06:11:41.558Z,99560.09
2023-04-13T06:14:07.991Z,99565.16
2023-04-13T06:16:34.280Z,99558.19
2023-04-13T06:19:01.317Z,99569.16
2023-04-13T06:21:29.959Z,99568.38
2023-04-13T06:23:56.245Z,99567.59
2023-04-13T06:26:22.565Z,99568.25
2023-04-13T06:28:48.855Z,99559.66
2023-04-13T06:31:15.426Z,99563.66
2023-04-13T06:33:41.763Z,99565.25
2023-04-13T06:36:08.401Z,99570.19
2023-04-13T06:38:34.708Z,99568.25
2023-04-13T06:41:02.322Z,99568.78
2023-04-13T06:43:29.832Z,99560.75
2023-04-13T06:46:01.461Z,99561.69
2023-04-13T06:48:27.980Z,99564.50
2023-04-13T06:50:56.296Z,99575.78
2023-04-13T06:53:23.314Z,99565.53
2023-04-13T06:55:49.667Z,99574.00
2023-04-13T06:58:16.016Z,99560.59
2023-04-13T07:00:42.520Z,99560.28
2023-04-13T07:03:09.020Z,99562.09
2023-04-13T07:05:35.498Z,99560.00
2023-04-13T07:08:01.924Z,99560.91
2023-04-13T07:10:28.319Z,99565.94
2023-04-13T07:12:54.679Z,99556.38
2023-04-13T07:15:21.091Z,99558.25
2023-04-13T07:17:47.532Z,99555.72
2023-04-13T07:20:13.902Z,99562.56
2023-04-13T07:22:40.312Z,99564.53
2023-04-13T07:25:07.322Z,99566.78
2023-04-13T07:27:33.811Z,99567.38
2023-04-13T07:30:01.093Z,99573.13
2023-04-13T07:32:31.174Z,99569.22
2023-04-13T07:35:01.182Z,99573.56
2023-04-13T07:37:27.772Z,99567.44
2023-04-13T07:39:54.452Z,99573.25
2023-04-13T07:42:20.826Z,99569.69
2023-04-13T07:44:47.131Z,99569.66
2023-04-13T07:47:14.012Z,99580.47
2023-04-13T07:49:40.596Z,99571.97
2023-04-13T07:52:06.958Z,99578.75
2023-04-13T07:54:34.847Z,99570.13
2023-04-13T07:57:02.305Z,99572.47
2023-04-13T07:59:29.484Z,99578.53
2023-04-13T08:01:55.841Z,99574.34
2023-04-13T08:04:22.469Z,99575.06
2023-04-13T08:06:49.070Z,99578.25
2023-04-13T08:09:15.588Z,99589.31
2023-04-13T08:11:42.698Z,99580.78
2023-04-13T08:14:09.780Z,99571.13
2023-04-13T08:16:36.502Z,99585.78
2023-04-13T08:19:03.079Z,99581.28
2023-04-13T08:21:29.992Z,99583.97
2023-04-13T08:23:56.813Z,99592.19
2023-04-13T08:26:23.205Z,99600.22
2023-04-13T08:28:50.872Z,99590.84
2023-04-13T08:31:17.898Z,99599.53
2023-04-13T08:33:44.401Z,99600.38
2023-04-13T08:36:11.248Z,99599.03
2023-04-13T08:38:37.684Z,99603.63
2023-04-13T08:41:04.526Z,99608.81
2023-04-13T08:43:35.642Z,99608.41
2023-04-13T08:46:05.815Z,99600.84
2023-04-13T08:48:49.959Z,99610.06
2023-04-13T08:51:22.399Z,99611.22
2023-04-13T08:53:49.393Z,99615.53
2023-04-13T08:56:16.592Z,99624.78
2023-04-13T08:58:45.181Z,99611.63
2023-04-13T09:01:13.550Z,99626.56
2023-04-13T09:03:54.020Z,99631.25
2023-04-13T09:06:27.221Z,99639.78
2023-04-13T09:08:55.564Z,99643.66
2023-04-13T09:11:22.128Z,99626.63
2023-04-13T09:13:50.553Z,99631.72
2023-04-13T09:16:18.318Z,99646.22
2023-04-13T09:18:52.375Z,99648.31
2023-04-13T09:21:19.188Z,99654.19
2023-04-13T09:23:59.182Z,99650.75
2023-04-13T09:26:25.973Z,99652.59
2023-04-13T09:28:56.351Z,99643.53
2023-04-13T09:31:23.315Z,99658.72
2023-04-13T09:33:51.862Z,99664.53
2023-04-13T09:36:20.959Z,99661.41
2023-04-13T09:38:52.615Z,99666.34
2023-04-13T09:41:36.400Z,99668.13
2023-04-13T09:44:18.707Z,99675.91
2023-04-13T09:47:07.651Z,99666.06
2023-04-13T09:49:38.533Z,99665.06
2023-04-13T09:52:25.497Z,99658.22
2023-04-13T09:54:53.795Z,99662.16
2023-04-13T09:57:27.492Z,99662.56
2023-04-13T09:59:55.283Z,99659.75
2023-04-13T10:02:22.345Z,99670.75
2023-04-13T10:04:49.496Z,99659.38
2023-04-13T10:07:16.179Z,99663.88
2023-04-13T10:09:44.148Z,99667.63
2023-04-13T10:12:14.321Z,99674.56
2023-04-13T10:14:44.140Z,99687.66
2023-04-13T10:17:23.546Z,99681.28
2023-04-13T10:19:52.904Z,99694.53
2023-04-13T10:22:22.720Z,99692.34
2023-04-13T10:24:50.624Z,99691.88
2023-04-13T10:27:19.643Z,99698.25
2023-04-13T10:29:47.245Z,99690.13
2023-04-13T10:32:33.906Z,99701.09
2023-04-13T10:35:09.322Z,99696.75
2023-04-13T10:37:37.049Z,99710.03
2023-04-13T10:40:10.059Z,99710.69
2023-04-13T10:42:52.434Z,99708.34
2023-04-13T10:45:25.994Z,99705.50
2023-04-13T10:47:56.154Z,99712.25
2023-04-13T10:50:24.608Z,99720.47
2023-04-13T10:53:10.792Z,99720.66
2023-04-13T10:55:37.158Z,99734.78
2023-04-13T10:58:14.302Z,99729.56
2023-04-13T11:00:46.761Z,99730.47
2023-04-13T11:03:17.699Z,99733.41
2023-04-13T11:05:47.013Z,99723.06
2023-04-13T11:08:20.598Z,99729.44
2023-04-13T11:10:57.082Z,99733.44
2023-04-13T11:13:25.542Z,99731.59
2023-04-13T11:15:59.953Z,99732.63
2023-04-13T11:18:27.184Z,99729.03
2023-04-13T11:20:53.791Z,99741.75
2023-04-13T11:23:20.371Z,99743.25
2023-04-13T11:26:05.225Z,99745.16
2023-04-13T11:28:40.079Z,99739.25
2023-04-13T11:31:07.621Z,99758.94
2023-04-13T11:33:34.143Z,99753.53
2023-04-13T11:36:01.045Z,99759.75
2023-04-13T11:38:28.412Z,99763.03
2023-04-13T11:41:15.682Z,99755.28
2023-04-13T11:43:45.694Z,99773.38
2023-04-13T11:46:13.470Z,99766.78
2023-04-13T11:48:40.373Z,99765.88
2023-04-13T11:51:07.466Z,99776.81
2023-04-13T11:53:36.248Z,99772.78
2023-04-13T11:56:02.668Z,99776.25
2023-04-13T11:58:29.145Z,99773.53
2023-04-13T12:00:59.907Z,99781.91
2023-04-13T12:03:47.136Z,99787.63
2023-04-13T12:06:19.717Z,99781.38
2023-04-13T12:08:48.299Z,99780.66
2023-04-13T12:14:06.624Z,99788.09
2023-04-13T12:17:03.068Z,99790.06
2023-04-13T12:19:27.244Z,99796.78
2023-04-13T12:21:58.053Z,99798.34
2023-04-13T12:24:37.558Z,99794.56
2023-04-13T12:29:39.195Z,99795.69
2023-04-13T12:32:11.720Z,99805.53
2023-04-13T12:34:38.143Z,99807.25
2023-04-13T12:37:04.494Z,99805.41
2023-04-13T12:39:31.044Z,99808.88
2023-04-13T12:41:57.594Z,99807.53
2023-04-13T12:44:23.987Z,99816.56
2023-04-13T12:46:51.075Z,99808.19
2023-04-13T12:49:17.454Z,99821.22
2023-04-13T12:51:43.859Z,99822.06
2023-04-13T12:54:13.197Z,99833.16
2023-04-13T12:56:40.736Z,99834.44
2023-04-13T12:59:07.854Z,99832.16
2023-04-13T13:01:37.258Z,99843.53
2023-04-13T13:04:05.611Z,99846.97
2023-04-13T13:06:34.268Z,99849.91
2023-04-13T13:09:01.166Z,99844.00
2023-04-13T13:11:28.261Z,99855.94
2023-04-13T13:13:54.651Z,99855.09
2023-04-13T13:16:21.114Z,99847.97
2023-04-13T13:18:50.860Z,99867.16
2023-04-13T13:21:18.700Z,99866.41
2023-04-13T13:23:45.606Z,99875.06
2023-04-13T13:28:42.318Z,99874.59
2023-04-13T13:31:08.879Z,99869.22
2023-04-13T13:33:36.144Z,99872.75
2023-04-13T13:36:02.720Z,99874.69
2023-04-13T13:38:29.309Z,99881.34
2023-04-13T13:40:55.958Z,99883.50
2023-04-13T13:43:22.518Z,99886.84
2023-04-13T13:45:49.774Z,99899.53
2023-04-13T13:48:16.537Z,99898.25
2023-04-13T13:50:43.170Z,99891.44
2023-04-13T13:53:09.568Z,99892.97
2023-04-13T13:55:35.977Z,99904.72
2023-04-13T13:58:02.368Z,99899.97
2023-04-13T14:00:28.996Z,99910.16
2023-04-13T14:02:56.880Z,99911.16
2023-04-13T14:05:23.847Z,99920.63
2023-04-13T14:07:51.077Z,99920.19
2023-04-13T14:10:17.528Z,99920.97
2023-04-13T14:12:49.534Z,99927.81
2023-04-13T14:15:17.249Z,99923.19
2023-04-13T14:17:45.542Z,99928.97
2023-04-13T14:20:16.723Z,99930.50
2023-04-13T14:22:43.119Z,99935.44
2023-04-13T14:25:09.778Z,99939.19
2023-04-13T14:27:37.228Z,99944.09
2023-04-13T14:30:04.910Z,99947.03
2023-04-13T14:32:32.066Z,99952.47
2023-04-13T14:34:59.969Z,99952.84
2023-04-13T14:37:27.684Z,99958.88
2023-04-13T14:39:56.900Z,99960.78
2023-04-13T14:42:24.740Z,99974.44
2023-04-13T14:44:51.824Z,99994.06
2023-04-13T14:47:19.164Z,100010.63
2023-04-13T14:49:47.273Z,100029.41
2023-04-13T14:52:15.036Z,100051.03
2023-04-13T14:54:41.794Z,100058.34
2023-04-13T14:57:09.641Z,100057.09
2023-04-13T14:59:35.951Z,100058.84
2023-04-13T15:02:02.397Z,100061.28
2023-04-13T15:04:29.696Z,100061.50
2023-04-13T15:06:56.193Z,100059.34
2023-04-13T15:09:22.453Z,100060.63
2023-04-13T15:11:49.208Z,100060.03
2023-04-13T15:14:15.537Z,100057.28
2023-04-13T15:16:41.891Z,100061.66
2023-04-13T15:19:08.219Z,100045.06
2023-04-13T15:21:37.273Z,100049.06
2023-04-13T15:24:04.047Z,100058.72
2023-04-13T15:26:45.736Z,100068.00
2023-04-13T15:29:12.009Z,100068.59
2023-04-13T15:31:38.972Z,100075.44
2023-04-13T15:34:06.384Z,100075.28
2023-04-13T15:36:32.699Z,100071.19
2023-04-13T15:39:00.424Z,100078.53
2023-04-13T15:41:27.658Z,100076.22
2023-04-13T15:43:56.554Z,100075.03
2023-04-13T15:46:22.964Z,100086.50
2023-04-13T15:48:50.257Z,100089.59
2023-04-13T15:51:16.682Z,100085.31
2023-04-13T15:53:42.998Z,100088.44
2023-04-13T15:56:09.582Z,100100.25
2023-04-13T15:58:35.904Z,100101.81
2023-04-13T16:01:03.913Z,100109.94
2023-04-13T16:03:31.172Z,100109.69
2023-04-13T16:05:57.664Z,100118.97
2023-04-13T16:08:24.295Z,100118.81
2023-04-13T16:10:51.125Z,100129.63
2023-04-13T16:13:20.064Z,100139.28
2023-04-13T16:15:57.013Z,100139.38
2023-04-13T16:18:31.783Z,100144.59
2023-04-13T16:21:03.655Z,100142.31
2023-04-13T16:23:33.740Z,100154.34
2023-04-13T16:26:01.335Z,100156.06
2023-04-13T16:28:28.579Z,100149.06
2023-04-13T16:30:56.062Z,100164.50
2023-04-13T16:33:22.592Z,100160.84
2023-04-13T16:35:48.891Z,100164.06
2023-04-13T16:38:15.364Z,100169.16
2023-04-13T16:40:41.966Z,100173.44
2023-04-13T16:43:08.245Z,100177.56
2023-04-13T16:45:36.146Z,100178.66
2023-04-13T16:48:02.773Z,100183.69
2023-04-13T16:50:31.820Z,100189.16
2023-04-13T16:52:58.628Z,100192.63
2023-04-13T16:55:27.911Z,100192.66
2023-04-13T16:57:54.276Z,100197.00
2023-04-13T17:00:21.330Z,100196.84
2023-04-13T17:02:47.910Z,100202.13
2023-04-13T17:05:14.404Z,100203.56
2023-04-13T17:07:43.726Z,100203.97
2023-04-13T17:10:12.492Z,100217.84
2023-04-13T17:12:39.061Z,100226.44
2023-04-13T17:15:05.945Z,100239.53
2023-04-13T17:17:32.265Z,100242.75
2023-04-13T17:19:58.624Z,100255.53
2023-04-13T17:22:24.902Z,100263.59
2023-04-13T17:24:51.485Z,100274.56
2023-04-13T17:27:17.928Z,100280.25
2023-04-13T17:29:44.316Z,100295.25
2023-04-13T17:32:10.681Z,100305.84
2023-04-13T17:34:37.083Z,100315.63
2023-04-13T17:37:03.525Z,100318.34
2023-04-13T17:39:29.882Z,100316.66
2023-04-13T17:41:56.625Z,100317.75
2023-04-13T17:44:22.964Z,100313.53
2023-04-13T17:46:50.136Z,100311.88
2023-04-13T17:49:16.416Z,100316.28
2023-04-13T17:51:48.027Z,100317.91
2023-04-13T17:54:14.361Z,100315.22
2023-04-13T17:56:41.047Z,100324.69
2023-04-13T17:59:07.380Z,100332.41
2023-04-13T18:01:33.786Z,100339.28
2023-04-13T18:04:00.292Z,100347.09
2023-04-13T18:06:27.253Z,100351.50
2023-04-13T18:08:53.671Z,100350.63
2023-04-13T18:11:19.957Z,100356.78
2023-04-13T18:13:46.279Z,100367.19
2023-04-13T18:16:14.295Z,100372.38
2023-04-13T18:18:40.911Z,100371.66
2023-04-13T18:21:08.121Z,100377.00
2023-04-13T18:23:34.436Z,100392.69
2023-04-13T18:26:02.375Z,100390.16
2023-04-13T18:28:31.630Z,100400.72
2023-04-13T18:31:01.204Z,100405.94
2023-04-13T18:33:28.147Z,100417.13
2023-04-13T18:35:54.525Z,100416.41
2023-04-13T18:38:21.081Z,100418.09
2023-04-13T18:40:49.056Z,100428.47
2023-04-13T18:43:15.788Z,100434.53
2023-04-13T18:45:42.848Z,100441.38
2023-04-13T18:48:09.764Z,100443.09
2023-04-13T18:50:36.614Z,100437.09
2023-04-13T18:53:02.925Z,100442.47
2023-04-13T18:55:29.429Z,100445.97
2023-04-13T18:57:56.426Z,100450.31
2023-04-13T19:00:23.389Z,100455.53
2023-04-13T19:02:52.379Z,100462.50
2023-04-13T19:05:19.632Z,100469.34
2023-04-13T19:07:59.791Z,100466.81
2023-04-13T19:10:27.801Z,100474.63
2023-04-13T19:12:54.274Z,100468.59
2023-04-13T19:15:20.735Z,100479.00
2023-04-13T19:17:47.270Z,100487.63
2023-04-13T19:20:14.368Z,100485.88
2023-04-13T19:22:40.710Z,100487.66
2023-04-13T19:25:13.851Z,100488.50
2023-04-13T19:27:45.465Z,100492.81
2023-04-13T19:30:13.466Z,100513.53
2023-04-13T19:32:41.738Z,100513.59
2023-04-13T19:35:10.419Z,100515.28
2023-04-13T19:37:37.931Z,100520.41
2023-04-13T19:40:13.534Z,100522.94
2023-04-13T19:42:41.852Z,100518.56
2023-04-13T19:45:09.207Z,100525.44
2023-04-13T19:47:37.281Z,100517.63
2023-04-13T19:50:04.853Z,100509.78
2023-04-13T19:52:31.405Z,100509.78
2023-04-13T19:54:57.986Z,100507.97
2023-04-13T19:57:24.456Z,100507.13
2023-04-13T19:59:51.095Z,100513.13
2023-04-13T20:02:17.594Z,100518.34
2023-04-13T20:04:45.996Z,100513.19
2023-04-13T20:07:12.312Z,100516.66
2023-04-13T20:09:38.686Z,100525.31
2023-04-13T20:12:05.391Z,100534.00
2023-04-13T20:14:31.694Z,100526.31
2023-04-13T20:16:58.031Z,100530.69
2023-04-13T20:19:24.918Z,100533.31
2023-04-13T20:21:51.900Z,100532.44
2023-04-13T20:24:18.514Z,100535.88
2023-04-13T20:26:45.006Z,100540.25
2023-04-13T20:29:11.335Z,100536.00
2023-04-13T20:31:38.616Z,100534.25
2023-04-13T20:34:07.083Z,100544.63
2023-04-13T20:36:33.360Z,100552.38
2023-04-13T20:39:00.103Z,100561.00
2023-04-13T20:41:29.614Z,100564.47
2023-04-13T20:43:55.936Z,100554.97
2023-04-13T20:46:25.017Z,100559.31
2023-04-13T20:48:55.573Z,100558.47
2023-04-13T20:51:23.293Z,100560.16
2023-04-13T20:53:50.109Z,100573.09
2023-04-13T20:56:18.865Z,100581.63
2023-04-13T20:58:46.373Z,100579.13
2023-04-13T21:01:12.929Z,100573.94
2023-04-13T21:03:39.462Z,100576.53
2023-04-13T21:06:07.526Z,100576.53
2023-04-13T21:08:33.819Z,100580.84
2023-04-13T21:11:00.260Z,100572.19
2023-04-13T21:13:27.856Z,100564.41
2023-04-13T21:15:54.150Z,100562.72
2023-04-13T21:18:20.503Z,100564.41
2023-04-13T21:20:46.818Z,100561.81
2023-04-13T21:23:13.200Z,100562.75
2023-04-13T21:25:40.011Z,100561.03
2023-04-13T21:28:06.346Z,100567.97
2023-04-13T21:30:32.792Z,100565.38
2023-04-13T21:32:59.166Z,100571.41
2023-04-13T21:35:25.631Z,100568.84
2023-04-13T21:37:52.104Z,100564.56
2023-04-13T21:40:18.710Z,100562.78
2023-04-13T21:42:45.038Z,100568.00
2023-04-13T21:45:11.602Z,100570.59
2023-04-13T21:47:37.954Z,100563.72
2023-04-13T21:50:05.030Z,100565.44
2023-04-13T21:52:31.357Z,100572.38
2023-04-13T21:54:59.751Z,100566.28
2023-04-13T21:57:26.477Z,100568.00
2023-04-13T21:59:54.435Z,100567.19
2023-04-13T22:02:21.053Z,100569.75
2023-04-13T22:04:47.663Z,100570.63
2023-04-13T22:07:14.032Z,100562.88
2023-04-13T22:09:40.395Z,100563.75
2023-04-13T22:12:06.818Z,100570.63
2023-04-13T22:14:33.148Z,100569.72
2023-04-13T22:16:59.472Z,100568.84
2023-04-13T22:19:25.849Z,100569.75
2023-04-13T22:21:52.147Z,100561.94
2023-04-13T22:24:18.827Z,100561.94
2023-04-13T22:26:46.233Z,100563.66
2023-04-13T22:29:13.193Z,100555.06
2023-04-13T22:31:39.516Z,100562.81
2023-04-13T22:34:05.811Z,100563.66
2023-04-13T22:36:32.211Z,100562.81
2023-04-13T22:38:58.814Z,100559.34
2023-04-13T22:41:25.548Z,100564.47
2023-04-13T22:43:51.812Z,100567.09
2023-04-13T22:46:18.532Z,100574.81
2023-04-13T22:48:44.914Z,100573.97
2023-04-13T22:51:11.459Z,100580.84
2023-04-13T22:53:37.783Z,100591.09
2023-04-13T22:56:04.414Z,100587.59
2023-04-13T22:58:30.877Z,100597.91
2023-04-13T23:00:57.205Z,100597.91
2023-04-13T23:03:23.800Z,100595.31
2023-04-13T23:05:50.382Z,100600.53
2023-04-13T23:08:16.801Z,100599.66
2023-04-13T23:10:43.103Z,100604.72
2023-04-13T23:13:09.370Z,100608.13
2023-04-13T23:15:35.771Z,100609.84
2023-04-13T23:18:04.774Z,100605.50
2023-04-13T23:20:31.693Z,100611.53
2023-04-13T23:22:57.994Z,100619.25
2023-04-13T23:25:24.561Z,100615.84
2023-04-13T23:27:50.900Z,100619.25
2023-04-13T23:30:17.213Z,100633.88
2023-04-13T23:32:43.552Z,100637.31
2023-04-13T23:35:10.125Z,100639.91
2023-04-13T23:37:36.417Z,100637.28
2023-04-13T23:40:03.084Z,100639.91
2023-04-13T23:42:29.411Z,100639.91
2023-04-13T23:44:56.149Z,100640.66
2023-04-13T23:47:22.703Z,100638.91
2023-04-13T23:49:50.656Z,100644.81
2023-04-13T23:52:17.476Z,100652.56
2023-04-13T23:54:43.780Z,100653.41
2023-04-13T23:57:11.739Z,100650.84
2023-04-13T23:59:38.178Z,100649.94
